Pagrindinis puslapis
METAR-TAF:

METAR-TAF

Oro uostai :

Kupangas, Indonezija

platuma: 10-10-17S, ilguma: 123-40-16E, Aukštis: 102 m

Dabartinis oras

Ataskaita buvo paskelbta 39 minutes, ne 02:00 UTC
Vėjas 7 kt iš Rytų
Temperatūra 33°C
Drėgmė 59%
Slėgis 1011 hPa
Matomumas 10 km arba daugiau
Išsisklaidę debesys ne aukštis 1800 ft

METAR: WATT 010200Z 10007KT 9999 SCT018 33/24 Q1011 NOSIG

Laikas: 09:39 (02:39 UTC)

Prognozė

Ataskaita buvo paskelbta 3 valandos ir 39 minutes, ne 23:00 UTC
Prognozė galioja nuo 01 metu 00 UTC su 01 metu 24 UTC
Vėjas 5 kt iš Rytų
Matomumas: 8000 m
Mažai debesys ne aukštis 1700 ft
Tapsmas
nuo 01 metu 04 UTC su 01 metu 06 UTC
Vėjas 13 kt iš Pietų
Tikimybė 30% :
Laikinai
nuo 01 metu 07 UTC su 01 metu 11 UTC
Matomumas: 5000 m
Mažai debesys ne aukštis 1700 ft, Liūtiniai kamuoliniai debesys.
perkūnija, lietus
Tapsmas
nuo 01 metu 13 UTC su 01 metu 15 UTC
Vėjas 3 kt iš Rytų/Pietryčių

TAF: WATT 312300Z 0100/0124 09005KT 8000 FEW017 BECMG 0104/0106 18013KT PROB30 TEMPO 0107/0111 5000 -TSRA FEW017CB BECMG 0113/0115 11003KT

Orai ataskaitas ir orų prognozės (METAR, TAF).

turimą stotys yra geltonos ir raudonos taškus žemėlapyje.

Perkelti pele per norėdami pamatyti stoties vardą.

Tada spustelėkite, norėdami matyti oro stebėjimo ir prognozės.

Norėdami pakeisti žemėlapį: spustelėkite ant žalios mygtukų su juodo kryžiaus žemyn,; žalią mygtuką su brūkšneliu, jei norite nutolinti; arba žalių rodyklių gretimoms žemėlapius.


METAR-TAF: